Time;durP1;ratioP1;P1;durP2;ratioP2;P2;SDS_P1;SDS_P2;PMS_P1;PMS_P2;Temp;Humidity;BMP_temperature;BMP_pressure;BME280_temperature;BME280_humidity;BME280_pressure;Samples;Min_cycle;Max_cycle;Signal;HPM_P1;HPM_P2
2022/10/08 00:00:54;;;;;;;21.80;15.73;;;13.40;99.90;;;;;;6250825;23;20391;-88
2022/10/08 00:03:21;;;;;;;19.40;11.97;;;;;;;;;;6250633;23;20380;-87
2022/10/08 00:06:02;;;;;;;26.08;17.30;;;13.50;99.90;;;;;;6250344;23;20386;-88
2022/10/08 00:08:31;;;;;;;27.33;17.10;;;13.50;99.90;;;;;;6252161;23;20457;-89
2022/10/08 00:10:59;;;;;;;28.10;19.23;;;13.40;99.90;;;;;;6250723;23;20431;-89
2022/10/08 00:13:26;;;;;;;17.05;12.68;;;;;;;;;;6250217;23;20403;-88
2022/10/08 00:15:52;;;;;;;15.07;10.80;;;;;;;;;;6248595;23;20156;-89
2022/10/08 00:18:18;;;;;;;15.97;11.33;;;;;;;;;;6249442;23;20374;-89
2022/10/08 00:20:49;;;;;;;14.00;10.30;;;13.80;99.90;;;;;;6250234;23;20375;-88
2022/10/08 00:23:15;;;;;;;16.77;10.93;;;;;;;;;;6250677;23;20387;-88
2022/10/08 00:25:44;;;;;;;18.40;12.93;;;;;;;;;;6251625;23;20375;-91
2022/10/08 00:28:12;;;;;;;16.57;10.07;;;14.10;99.90;;;;;;6251887;23;20671;-89
2022/10/08 00:30:39;;;;;;;15.33;10.70;;;14.20;99.90;;;;;;6254138;22;20411;-88
2022/10/08 00:33:07;;;;;;;16.20;9.90;;;14.30;99.90;;;;;;6251547;23;20379;-87
2022/10/08 00:35:37;;;;;;;19.60;8.97;;;;;;;;;;6252751;23;20695;-90
2022/10/08 00:38:16;;;;;;;17.53;9.27;;;;;;;;;;6252832;23;20391;-89
2022/10/08 00:43:38;;;;;;;18.83;9.90;;;;;;;;;;6234384;22;20484;-87
2022/10/08 00:46:08;;;;;;;20.10;9.40;;;;;;;;;;6244762;23;20455;-87
2022/10/08 00:48:37;;;;;;;17.37;9.00;;;;;;;;;;6242379;23;20375;-88
2022/10/08 00:51:04;;;;;;;12.97;8.47;;;;;;;;;;6245115;23;20427;-87
2022/10/08 00:53:48;;;;;;;16.27;8.70;;;;;;;;;;6244153;23;20364;-88
2022/10/08 00:56:14;;;;;;;17.57;9.20;;;;;;;;;;6245549;23;20454;-88
2022/10/08 00:58:49;;;;;;;14.67;9.00;;;;;;;;;;6243636;23;20390;-87
2022/10/08 01:01:16;;;;;;;17.17;9.97;;;;;;;;;;6243501;23;20391;-88
2022/10/08 01:03:44;;;;;;;14.50;8.93;;;;;;;;;;6240658;23;20364;-88
2022/10/08 01:06:23;;;;;;;15.23;9.30;;;;;;;;;;6240691;23;20410;-89
2022/10/08 01:09:04;;;;;;;12.90;9.30;;;;;;;;;;6241079;23;20409;-86
2022/10/08 01:11:33;;;;;;;18.93;9.17;;;;;;;;;;6240911;23;20492;-87
2022/10/08 01:14:04;;;;;;;18.10;9.10;;;;;;;;;;6239392;23;20376;-86
2022/10/08 01:16:41;;;;;;;13.57;9.30;;;14.70;99.90;;;;;;6242299;23;20349;-87
2022/10/08 01:19:41;;;;;;;16.30;8.83;;;14.70;99.90;;;;;;6238514;23;20402;-87
2022/10/08 01:22:42;;;;;;;19.40;9.43;;;14.80;99.90;;;;;;6238409;23;21003;-89
2022/10/08 01:25:33;;;;;;;15.90;8.10;;;14.80;99.90;;;;;;6179591;23;21026;-87
2022/10/08 01:28:13;;;;;;;20.70;8.80;;;14.80;99.90;;;;;;6240866;23;20371;-87
2022/10/08 01:30:55;;;;;;;13.03;8.27;;;14.70;99.90;;;;;;6237789;22;20423;-87
2022/10/08 01:33:38;;;;;;;19.50;8.27;;;14.60;99.90;;;;;;6237917;23;21016;-87
2022/10/08 01:36:06;;;;;;;21.13;8.73;;;14.40;99.90;;;;;;6239283;23;20379;-87
2022/10/08 01:38:37;;;;;;;10.43;7.90;;;13.90;99.90;;;;;;6240665;23;20383;-88
2022/10/08 01:41:07;;;;;;;14.77;8.87;;;14.40;99.90;;;;;;6242558;22;20392;-87
2022/10/08 01:43:36;;;;;;;21.03;9.57;;;14.50;99.90;;;;;;6242409;22;20446;-88
2022/10/08 01:46:10;;;;;;;12.80;7.90;;;14.20;99.90;;;;;;6243319;23;20380;-87
2022/10/08 01:48:40;;;;;;;10.83;7.60;;;14.20;99.90;;;;;;6247951;23;20386;-87
2022/10/08 01:51:24;;;;;;;21.73;10.57;;;14.20;99.90;;;;;;6247040;22;20450;-87
2022/10/08 01:53:51;;;;;;;13.47;8.50;;;14.20;99.90;;;;;;6243199;23;20462;-87
2022/10/08 01:56:22;;;;;;;14.73;8.90;;;14.30;99.90;;;;;;6245112;23;20822;-89
2022/10/08 01:58:53;;;;;;;17.03;8.80;;;14.30;99.90;;;;;;6243737;23;20379;-88
2022/10/08 02:01:37;;;;;;;13.93;8.07;;;14.20;99.90;;;;;;6247171;22;20505;-87
2022/10/08 02:06:55;;;;;;;17.93;9.13;;;14.10;99.90;;;;;;6247358;23;20358;-87
2022/10/08 02:09:26;;;;;;;18.27;9.00;;;14.10;99.90;;;;;;6243077;23;20379;-87
2022/10/08 02:11:53;;;;;;;9.93;7.97;;;14.00;99.90;;;;;;6245577;22;20407;-87
2022/10/08 02:14:24;;;;;;;14.10;7.83;;;14.00;99.90;;;;;;6244897;22;20381;-87
2022/10/08 02:17:09;;;;;;;18.83;8.20;;;14.00;99.90;;;;;;6241195;23;20454;-87
2022/10/08 02:20:04;;;;;;;15.30;9.00;;;14.00;99.90;;;;;;6246736;22;20842;-87
2022/10/08 02:22:36;;;;;;;22.63;8.00;;;14.00;99.90;;;;;;6237150;23;20963;-87
2022/10/08 02:25:15;;;;;;;18.33;8.53;;;;;;;;;;6240450;22;20450;-85
2022/10/08 02:28:14;;;;;;;20.50;8.60;;;14.20;99.90;;;;;;6245066;23;20906;-85
2022/10/08 02:30:48;;;;;;;23.43;11.30;;;14.30;99.90;;;;;;6247926;23;20419;-86
2022/10/08 02:33:25;;;;;;;18.63;13.63;;;14.20;99.90;;;;;;6215703;23;20695;-86
2022/10/08 02:35:54;;;;;;;21.13;13.70;;;14.00;99.90;;;;;;6215238;23;20387;-85
2022/10/08 02:38:25;;;;;;;19.63;13.20;;;13.90;99.90;;;;;;6216170;23;20380;-85
2022/10/08 02:40:55;;;;;;;18.30;12.43;;;14.00;99.90;;;;;;6216336;23;20717;-85
2022/10/08 02:43:25;;;;;;;15.90;11.47;;;14.10;99.90;;;;;;6216786;23;20392;-85
2022/10/08 02:46:03;;;;;;;16.57;10.97;;;14.30;99.90;;;;;;6216932;23;20417;-85
2022/10/08 02:48:30;;;;;;;14.70;11.00;;;;;;;;;;6215243;23;20360;-85
2022/10/08 02:51:03;;;;;;;26.47;10.20;;;14.50;99.90;;;;;;6208571;23;20427;-85
2022/10/08 02:53:29;;;;;;;17.10;9.63;;;;;;;;;;6215272;23;20380;-84
2022/10/08 02:56:13;;;;;;;15.60;8.97;;;14.80;99.90;;;;;;6211622;23;20368;-84
2022/10/08 02:58:41;;;;;;;15.77;9.23;;;14.90;99.90;;;;;;6213769;23;20434;-85
2022/10/08 03:01:30;;;;;;;13.80;8.40;;;15.00;99.90;;;;;;6213885;23;20458;-84
2022/10/08 03:04:12;;;;;;;19.73;10.47;;;14.90;99.90;;;;;;6212787;23;20667;-85
2022/10/08 03:06:38;;;;;;;18.47;9.50;;;;;;;;;;6212943;23;20372;-85
2022/10/08 03:09:05;;;;;;;18.03;10.60;;;;;;;;;;6213261;23;20768;-85
2022/10/08 03:11:32;;;;;;;17.67;10.40;;;14.90;99.90;;;;;;6215977;23;20420;-84
2022/10/08 03:14:01;;;;;;;28.93;11.77;;;14.90;99.90;;;;;;6216935;23;20384;-84
2022/10/08 03:16:38;;;;;;;14.30;9.70;;;14.90;99.90;;;;;;6215316;23;20411;-84
2022/10/08 03:19:06;;;;;;;16.83;10.87;;;14.80;99.90;;;;;;6214894;23;20376;-84
2022/10/08 03:21:33;;;;;;;19.53;10.40;;;;;;;;;;6215166;23;20415;-85
2022/10/08 03:23:59;;;;;;;14.47;10.67;;;;;;;;;;6215964;23;20380;-85
2022/10/08 03:26:25;;;;;;;18.23;10.20;;;;;;;;;;6216681;23;20419;-85
2022/10/08 03:28:53;;;;;;;23.63;10.50;;;14.50;99.90;;;;;;6217403;23;20472;-85
2022/10/08 03:31:19;;;;;;;19.47;10.80;;;;;;;;;;6215024;23;20431;-84
2022/10/08 03:33:49;;;;;;;24.53;12.23;;;14.30;99.90;;;;;;6213803;23;20377;-85
2022/10/08 03:36:15;;;;;;;21.10;11.77;;;14.20;99.90;;;;;;6214938;23;20372;-84
2022/10/08 03:38:41;;;;;;;21.40;10.70;;;;;;;;;;6214556;23;20388;-85
2022/10/08 03:41:08;;;;;;;16.90;9.90;;;14.30;99.90;;;;;;6213997;23;20209;-85
2022/10/08 03:43:34;;;;;;;14.00;10.07;;;14.30;99.90;;;;;;6211187;23;20376;-84
2022/10/08 03:46:01;;;;;;;16.33;10.33;;;14.30;99.90;;;;;;6210069;23;20467;-85
2022/10/08 03:48:27;;;;;;;23.67;10.50;;;14.20;99.90;;;;;;6212458;23;20395;-85
2022/10/08 03:50:54;;;;;;;19.13;10.30;;;14.20;99.90;;;;;;6214023;23;20964;-84
2022/10/08 03:53:20;;;;;;;18.03;9.63;;;14.10;99.90;;;;;;6211960;23;20467;-84
2022/10/08 03:55:46;;;;;;;16.20;10.10;;;;;;;;;;6217816;23;20368;-84
2022/10/08 03:58:12;;;;;;;15.70;10.00;;;;;;;;;;6218807;23;20372;-84
2022/10/08 04:00:39;;;;;;;18.77;10.10;;;;;;;;;;6217909;23;20380;-83
2022/10/08 04:03:04;;;;;;;21.83;10.80;;;14.10;99.90;;;;;;6208950;23;20460;-83
2022/10/08 04:05:31;;;;;;;24.60;9.90;;;;;;;;;;6216412;23;20477;-84
2022/10/08 04:07:57;;;;;;;20.93;10.83;;;;;;;;;;6212885;23;20177;-84
2022/10/08 04:10:23;;;;;;;19.57;9.90;;;;;;;;;;6215681;23;20391;-83
2022/10/08 04:12:49;;;;;;;17.83;9.63;;;;;;;;;;6219369;23;20502;-83
2022/10/08 04:15:14;;;;;;;10.50;8.83;;;;;;;;;;6217681;23;20733;-83
2022/10/08 04:17:41;;;;;;;17.63;10.50;;;;;;;;;;6215456;23;20403;-83
2022/10/08 04:20:07;;;;;;;24.27;10.90;;;;;;;;;;6215942;23;20388;-83
2022/10/08 04:22:33;;;;;;;15.40;9.40;;;;;;;;;;6213649;23;20430;-83
2022/10/08 04:24:59;;;;;;;15.90;10.40;;;;;;;;;;6214641;23;20391;-82
2022/10/08 04:27:25;;;;;;;20.37;10.73;;;;;;;;;;6215876;23;20378;-83
2022/10/08 04:29:51;;;;;;;17.47;10.33;;;;;;;;;;6216793;23;20376;-83
2022/10/08 04:32:17;;;;;;;17.40;10.13;;;;;;;;;;6211391;23;20431;-83
2022/10/08 04:34:43;;;;;;;22.70;10.70;;;;;;;;;;6213744;23;21187;-84
2022/10/08 04:37:09;;;;;;;17.90;9.50;;;;;;;;;;6216583;23;20430;-83
2022/10/08 04:39:35;;;;;;;14.60;8.80;;;;;;;;;;6212363;23;20376;-83
2022/10/08 04:42:01;;;;;;;18.20;9.67;;;;;;;;;;6216188;23;20392;-83
2022/10/08 04:44:27;;;;;;;19.90;10.87;;;;;;;;;;6213849;23;20814;-83
2022/10/08 04:46:53;;;;;;;15.93;9.90;;;;;;;;;;6217852;23;20434;-83
2022/10/08 04:49:19;;;;;;;18.70;10.52;;;;;;;;;;6215329;23;20384;-83
2022/10/08 04:51:45;;;;;;;12.50;8.90;;;;;;;;;;6211920;23;20223;-82
2022/10/08 04:54:11;;;;;;;18.63;9.67;;;;;;;;;;6213696;23;20419;-82
2022/10/08 04:56:37;;;;;;;20.63;9.57;;;;;;;;;;6216169;23;20360;-83
2022/10/08 04:59:06;;;;;;;17.43;10.57;;;;;;;;;;6212126;23;20415;-83
2022/10/08 05:01:32;;;;;;;15.77;9.90;;;;;;;;;;6211368;23;20459;-83
2022/10/08 05:03:58;;;;;;;22.40;9.30;;;13.80;99.90;;;;;;6212743;23;20369;-82
2022/10/08 05:06:26;;;;;;;17.03;8.83;;;13.70;99.90;;;;;;6212152;23;20384;-83
2022/10/08 05:08:53;;;;;;;20.77;9.43;;;;;;;;;;6211678;23;20381;-82
2022/10/08 05:11:22;;;;;;;14.10;9.85;;;13.70;99.90;;;;;;6212928;23;20917;-84
2022/10/08 05:13:55;;;;;;;19.33;9.43;;;13.70;99.90;;;;;;6210394;23;20924;-84
2022/10/08 05:16:22;;;;;;;14.20;9.40;;;13.50;99.90;;;;;;6212744;23;20365;-84
2022/10/08 05:18:50;;;;;;;20.58;9.98;;;13.60;99.90;;;;;;6214208;23;20441;-84
2022/10/08 05:21:18;;;;;;;13.05;8.90;;;13.60;99.90;;;;;;6211086;23;20177;-83
2022/10/08 05:23:44;;;;;;;25.77;9.32;;;;;;;;;;6208276;23;20157;-84
2022/10/08 05:26:22;;;;;;;21.97;9.90;;;13.70;99.90;;;;;;6212259;23;20287;-84
2022/10/08 05:28:51;;;;;;;18.80;9.35;;;13.70;99.90;;;;;;6212342;23;20407;-83
2022/10/08 05:31:17;;;;;;;10.93;9.13;;;13.70;99.90;;;;;;6212044;23;20216;-83
2022/10/08 05:33:43;;;;;;;15.57;10.30;;;;;;;;;;6210007;23;20142;-83
2022/10/08 05:36:15;;;;;;;16.20;10.37;;;13.70;99.90;;;;;;6209954;23;20160;-83
2022/10/08 05:38:44;;;;;;;20.43;10.00;;;;;;;;;;6201896;23;20384;-83
2022/10/08 05:41:32;;;;;;;14.77;10.40;;;13.60;99.90;;;;;;6209715;23;20392;-83
2022/10/08 05:44:00;;;;;;;21.00;10.57;;;13.60;99.90;;;;;;6208057;23;20795;-84
2022/10/08 05:46:28;;;;;;;18.75;10.65;;;13.50;99.90;;;;;;6210403;23;20244;-84
2022/10/08 05:48:55;;;;;;;21.40;10.20;;;13.50;99.90;;;;;;6211436;23;20134;-83
2022/10/08 05:51:21;;;;;;;16.23;10.30;;;13.70;99.90;;;;;;6209814;23;20435;-83
2022/10/08 05:53:48;;;;;;;17.80;10.57;;;13.40;99.90;;;;;;6211985;23;20369;-83
2022/10/08 05:56:17;;;;;;;15.30;10.47;;;13.50;99.90;;;;;;6214631;23;20680;-83
2022/10/08 05:58:43;;;;;;;12.90;10.80;;;13.50;99.90;;;;;;6214523;23;20452;-83
2022/10/08 06:01:13;;;;;;;20.37;11.03;;;13.60;99.90;;;;;;6212675;23;20404;-83
2022/10/08 06:03:39;;;;;;;22.47;12.20;;;;;;;;;;6214525;23;20384;-84
2022/10/08 06:06:08;;;;;;;23.43;11.43;;;13.60;99.90;;;;;;6215212;23;20392;-84
2022/10/08 06:08:34;;;;;;;22.07;10.83;;;13.90;99.90;;;;;;6216360;23;20369;-83
2022/10/08 06:11:00;;;;;;;18.33;10.63;;;13.90;99.90;;;;;;6218221;23;20428;-83
2022/10/08 06:13:26;;;;;;;20.33;10.60;;;;;;;;;;6215927;23;20388;-83
2022/10/08 06:16:07;;;;;;;18.57;10.57;;;14.00;99.90;;;;;;6216453;23;20371;-84
2022/10/08 06:18:35;;;;;;;20.50;12.17;;;14.10;99.90;;;;;;6211677;23;20696;-84
2022/10/08 06:21:05;;;;;;;22.40;12.10;;;14.00;99.90;;;;;;6213601;23;20893;-83
2022/10/08 06:23:32;;;;;;;17.73;11.03;;;;;;;;;;6213188;23;20365;-83
2022/10/08 06:26:17;;;;;;;22.67;10.70;;;14.00;99.90;;;;;;6214136;23;20821;-82
2022/10/08 06:28:43;;;;;;;18.10;9.13;;;14.00;99.90;;;;;;6211142;23;20392;-83
2022/10/08 06:31:09;;;;;;;15.93;9.40;;;13.50;99.90;;;;;;6216195;23;20431;-82
2022/10/08 06:33:35;;;;;;;17.50;9.43;;;;;;;;;;6213249;23;20388;-83
2022/10/08 06:36:06;;;;;;;16.20;8.57;;;14.10;99.90;;;;;;6213353;23;20383;-82
2022/10/08 06:38:32;;;;;;;11.33;7.10;;;;;;;;;;6215432;23;20535;-82
2022/10/08 06:46:09;;;;;;;17.33;7.87;;;;;;;;;;6240080;23;20818;-87
2022/10/08 06:48:36;;;;;;;15.80;7.60;;;;;;;;;;6233511;23;20371;-87
2022/10/08 06:51:07;;;;;;;16.07;5.97;;;14.80;99.90;;;;;;6239660;23;20423;-84
2022/10/08 06:53:33;;;;;;;19.00;6.30;;;15.50;99.90;;;;;;6242228;22;20379;-85
2022/10/08 06:56:05;;;;;;;11.10;6.17;;;16.20;99.90;;;;;;6240640;23;20783;-84
2022/10/08 06:58:31;;;;;;;9.50;4.30;;;;;;;;;;6237318;22;20356;-86
2022/10/08 07:01:02;;;;;;;20.37;5.10;;;17.30;99.90;;;;;;6230126;23;20370;-87
2022/10/08 07:03:28;;;;;;;9.70;4.40;;;;;;;;;;6239085;23;20387;-87
2022/10/08 07:05:54;;;;;;;13.50;4.43;;;;;;;;;;6252647;22;20439;-85
2022/10/08 07:08:19;;;;;;;6.00;4.53;;;;;;;;;;6247715;23;20738;-85
2022/10/08 07:10:46;;;;;;;9.53;4.47;;;;;;;;;;6226868;23;20414;-86
2022/10/08 07:13:12;;;;;;;7.57;3.73;;;;;;;;;;6236164;23;20889;-84
2022/10/08 07:15:38;;;;;;;9.00;3.60;;;;;;;;;;6234972;23;20411;-86
2022/10/08 07:18:04;;;;;;;7.20;4.47;;;;;;;;;;6234935;23;20388;-85
2022/10/08 07:20:30;;;;;;;9.43;4.27;;;;;;;;;;6233519;23;20909;-85
2022/10/08 07:22:55;;;;;;;8.43;3.60;;;;;;;;;;6228055;23;20363;-86
2022/10/08 07:25:21;;;;;;;13.43;3.50;;;;;;;;;;6226274;23;20390;-86
2022/10/08 07:27:47;;;;;;;9.63;3.50;;;;;;;;;;6229406;23;20383;-84
2022/10/08 07:30:14;;;;;;;7.07;3.90;;;;;;;;;;6231607;23;20441;-85
2022/10/08 07:32:40;;;;;;;6.50;4.17;;;;;;;;;;6230103;23;20691;-86
2022/10/08 07:35:06;;;;;;;8.03;3.40;;;;;;;;;;6234010;23;20999;-84
2022/10/08 07:37:31;;;;;;;11.80;3.37;;;16.40;99.90;;;;;;6232837;23;20407;-86
2022/10/08 07:39:57;;;;;;;4.87;2.90;;;;;;;;;;6229021;23;20383;-87
2022/10/08 07:42:23;;;;;;;9.07;3.30;;;;;;;;;;6234679;23;20141;-88
2022/10/08 07:44:49;;;;;;;10.50;3.30;;;;;;;;;;6230110;23;20512;-87
2022/10/08 07:47:15;;;;;;;9.37;3.20;;;;;;;;;;6231339;23;20415;-86
2022/10/08 07:49:41;;;;;;;20.33;3.87;;;;;;;;;;6233276;23;20371;-87
2022/10/08 07:52:07;;;;;;;5.07;3.00;;;;;;;;;;6232808;23;20407;-87
2022/10/08 07:54:33;;;;;;;9.80;3.73;;;;;;;;;;6222491;23;20444;-88
2022/10/08 07:57:01;;;;;;;10.33;2.90;;;;;;;;;;6234896;23;20873;-86
2022/10/08 07:59:27;;;;;;;13.10;2.93;;;;;;;;;;6226381;23;21190;-88
2022/10/08 08:01:53;;;;;;;11.10;3.63;;;;;;;;;;6228525;23;20394;-87
2022/10/08 08:04:19;;;;;;;9.83;3.30;;;;;;;;;;6228054;23;20905;-86
2022/10/08 08:06:51;;;;;;;11.07;2.87;;;18.90;99.90;;;;;;6229038;23;20442;-84
2022/10/08 08:09:17;;;;;;;15.97;3.53;;;;;;;;;;6244917;22;20364;-87
2022/10/08 08:11:44;;;;;;;16.07;3.60;;;;;;;;;;6244632;23;20419;-86
2022/10/08 08:14:10;;;;;;;10.17;2.97;;;17.50;99.90;;;;;;6228933;23;20406;-85
2022/10/08 08:16:37;;;;;;;9.60;3.50;;;18.20;99.90;;;;;;6238505;23;20388;-85
2022/10/08 08:19:03;;;;;;;12.63;2.97;;;;;;;;;;6243537;22;20383;-84
2022/10/08 08:21:34;;;;;;;7.57;2.50;;;18.10;99.90;;;;;;6242078;23;20370;-86
2022/10/08 08:24:09;;;;;;;7.40;2.33;;;18.10;99.90;;;;;;6238475;22;20364;-86
2022/10/08 08:26:37;;;;;;;12.30;2.97;;;18.10;99.90;;;;;;6238616;22;20490;-87
2022/10/08 08:29:10;;;;;;;6.97;2.90;;;19.40;99.90;;;;;;6236090;23;20395;-84
2022/10/08 08:31:38;;;;;;;6.80;2.20;;;19.70;99.90;;;;;;6238089;23;20486;-86
2022/10/08 08:34:06;;;;;;;7.63;2.73;;;18.60;99.90;;;;;;6237616;22;20474;-85
2022/10/08 08:36:38;;;;;;;8.40;2.63;;;19.00;99.90;;;;;;6241182;22;20725;-86
2022/10/08 08:39:05;;;;;;;9.53;2.93;;;19.50;99.90;;;;;;6224443;22;20741;-85
2022/10/08 08:41:56;;;;;;;12.13;2.73;;;19.50;99.90;;;;;;6236544;23;20447;-83
2022/10/08 08:44:24;;;;;;;5.77;2.80;;;;;;;;;;6235781;23;20506;-86
2022/10/08 08:46:58;;;;;;;12.80;3.27;;;18.60;99.90;;;;;;6240128;23;20426;-87
2022/10/08 08:49:24;;;;;;;6.63;2.90;;;;;;;;;;6244975;22;20363;-87
2022/10/08 08:51:51;;;;;;;10.00;2.10;;;18.70;99.90;;;;;;6244927;23;20720;-87
2022/10/08 08:54:17;;;;;;;8.93;2.20;;;;;;;;;;6240431;23;20386;-87
2022/10/08 08:56:43;;;;;;;11.00;3.00;;;;;;;;;;6242363;23;20383;-85
2022/10/08 08:59:18;;;;;;;3.80;1.70;;;18.60;99.90;;;;;;6243551;23;20352;-86
2022/10/08 09:01:47;;;;;;;10.70;3.27;;;17.10;99.90;;;;;;6236358;23;20433;-85
2022/10/08 09:04:28;;;;;;;10.90;2.73;;;17.90;99.90;;;;;;6240761;23;20415;-87
2022/10/08 09:06:55;;;;;;;8.53;2.40;;;;;;;;;;6241632;23;20364;-86
2022/10/08 09:09:29;;;;;;;14.83;2.90;;;17.20;99.90;;;;;;6241952;22;20396;-86
2022/10/08 09:11:56;;;;;;;16.67;4.80;;;17.80;99.90;;;;;;6243997;22;20403;-85
2022/10/08 09:14:37;;;;;;;7.27;2.87;;;18.10;99.90;;;;;;6236897;23;20379;-87
2022/10/08 09:17:16;;;;;;;13.83;2.77;;;18.50;99.90;;;;;;6240612;22;20360;-86
2022/10/08 09:19:42;;;;;;;6.60;2.50;;;;;;;;;;6243497;23;20434;-85
2022/10/08 09:22:20;;;;;;;8.63;3.27;;;18.70;99.90;;;;;;6241030;23;20378;-86
2022/10/08 09:24:50;;;;;;;5.13;2.10;;;18.90;99.90;;;;;;6236063;23;20498;-87
2022/10/08 09:27:18;;;;;;;10.50;3.50;;;;;;;;;;6239899;22;20375;-84
2022/10/08 09:29:44;;;;;;;10.50;2.97;;;;;;;;;;6236078;22;20731;-86
2022/10/08 09:32:15;;;;;;;7.37;2.33;;;18.80;99.90;;;;;;6237138;23;20427;-85
2022/10/08 09:34:42;;;;;;;7.70;2.63;;;;;;;;;;6235672;23;20454;-88
2022/10/08 09:37:28;;;;;;;9.70;2.83;;;18.30;99.90;;;;;;6226009;23;20807;-86
2022/10/08 09:40:20;;;;;;;11.80;2.80;;;17.60;99.90;;;;;;6233575;23;20464;-85
2022/10/08 09:43:06;;;;;;;8.10;2.53;;;17.30;99.90;;;;;;6236412;23;20391;-82
2022/10/08 09:45:40;;;;;;;10.20;3.20;;;17.20;99.90;;;;;;6241748;23;20688;-85
2022/10/08 09:48:27;;;;;;;11.13;2.73;;;17.00;99.90;;;;;;6255899;23;20430;-83
2022/10/08 09:50:55;;;;;;;12.20;2.50;;;17.10;99.90;;;;;;6248122;22;20466;-87
2022/10/08 09:53:23;;;;;;;9.90;2.60;;;17.30;99.90;;;;;;6234005;23;20430;-86
2022/10/08 09:56:01;;;;;;;5.33;2.80;;;17.20;99.90;;;;;;6234637;23;20962;-87
2022/10/08 09:58:34;;;;;;;12.30;2.97;;;17.00;99.90;;;;;;6236042;23;20916;-88
2022/10/08 10:01:04;;;;;;;10.60;3.77;;;16.70;99.90;;;;;;6240327;22;20830;-85
2022/10/08 10:03:31;;;;;;;13.33;2.70;;;16.90;99.90;;;;;;6235815;23;20396;-87
2022/10/08 10:06:00;;;;;;;10.60;2.60;;;;;;;;;;6237132;22;20392;-88
2022/10/08 10:08:51;;;;;;;8.63;3.00;;;17.50;99.90;;;;;;6234561;23;20394;-87
2022/10/08 10:11:23;;;;;;;7.20;2.50;;;16.90;99.90;;;;;;6240317;22;20438;-84
2022/10/08 10:13:49;;;;;;;8.30;2.40;;;16.50;99.90;;;;;;6232060;23;20387;-86
2022/10/08 10:16:35;;;;;;;7.33;2.57;;;16.40;99.90;;;;;;6237733;22;20384;-86
2022/10/08 10:19:10;;;;;;;7.53;2.97;;;16.60;99.90;;;;;;6235484;23;20390;-86
2022/10/08 10:21:44;;;;;;;10.47;2.90;;;16.60;99.90;;;;;;6234772;22;21062;-86
2022/10/08 10:24:25;;;;;;;10.00;3.13;;;;;;;;;;6234961;22;20367;-87
2022/10/08 10:26:58;;;;;;;13.90;3.60;;;16.30;99.90;;;;;;6237740;23;20458;-86
2022/10/08 10:29:30;;;;;;;10.80;3.00;;;16.80;99.90;;;;;;6237407;22;20360;-88
2022/10/08 10:32:04;;;;;;;11.00;2.90;;;16.60;99.90;;;;;;6233229;22;20488;-85
2022/10/08 10:34:34;;;;;;;10.67;3.27;;;16.90;99.90;;;;;;6233185;23;20379;-86
2022/10/08 10:37:05;;;;;;;9.80;2.83;;;16.60;99.90;;;;;;6236161;22;20358;-87
2022/10/08 10:39:54;;;;;;;9.40;2.70;;;16.50;99.90;;;;;;6223130;22;20358;-85
2022/10/08 10:42:37;;;;;;;6.70;1.80;;;16.60;99.90;;;;;;6233471;23;20383;-85
2022/10/08 10:45:19;;;;;;;10.33;2.70;;;16.60;99.90;;;;;;6231815;22;20441;-84
2022/10/08 10:47:45;;;;;;;7.23;2.43;;;;;;;;;;6233139;22;20358;-85
2022/10/08 10:50:15;;;;;;;8.47;3.07;;;17.30;99.90;;;;;;6238840;23;20367;-85
2022/10/08 10:52:48;;;;;;;7.40;2.40;;;16.60;99.90;;;;;;6234161;23;20426;-86
2022/10/08 10:55:30;;;;;;;6.13;1.60;;;16.90;99.90;;;;;;6240430;22;20391;-86
2022/10/08 10:58:11;;;;;;;11.47;2.00;;;14.70;99.90;;;;;;6236758;22;20354;-86
2022/10/08 11:00:37;;;;;;;7.37;2.13;;;;;;;;;;6236412;23;20352;-86
2022/10/08 11:03:32;;;;;;;3.73;1.70;;;15.90;99.90;;;;;;6233405;23;20822;-86
2022/10/08 11:06:49;;;;;;;6.80;2.47;;;15.70;99.90;;;;;;6232510;23;20434;-85
2022/10/08 11:09:24;;;;;;;8.57;2.40;;;15.70;99.90;;;;;;6248474;23;20380;-85
2022/10/08 11:12:17;;;;;;;8.30;2.27;;;15.70;99.90;;;;;;6246655;23;20419;-85
2022/10/08 11:15:28;;;;;;;17.37;2.13;;;16.10;99.90;;;;;;6240781;23;20386;-86
2022/10/08 11:18:13;;;;;;;7.67;2.10;;;16.40;99.90;;;;;;6235437;23;20387;-88
2022/10/08 11:20:54;;;;;;;5.30;3.13;;;16.30;99.90;;;;;;6237272;23;20540;-85
2022/10/08 11:23:44;;;;;;;5.43;2.00;;;16.10;99.90;;;;;;6238688;23;20383;-83
2022/10/08 11:26:38;;;;;;;4.50;1.80;;;16.20;99.90;;;;;;6235818;23;20493;-83
2022/10/08 11:29:42;;;;;;;7.80;2.20;;;16.40;99.90;;;;;;6234569;23;20921;-83
2022/10/08 11:32:14;;;;;;;6.67;1.90;;;16.50;99.90;;;;;;6236459;22;20889;-83
2022/10/08 11:34:59;;;;;;;14.43;2.70;;;16.60;99.90;;;;;;6234463;23;20394;-84
2022/10/08 11:37:50;;;;;;;5.33;1.77;;;16.50;99.90;;;;;;6235302;23;20401;-85
2022/10/08 11:40:41;;;;;;;7.60;1.70;;;16.70;99.90;;;;;;6235501;23;20384;-84
2022/10/08 11:43:32;;;;;;;5.77;2.00;;;16.80;99.90;;;;;;6237921;22;20363;-85
2022/10/08 11:46:27;;;;;;;4.60;1.53;;;17.10;99.90;;;;;;6235026;23;20419;-84
2022/10/08 11:48:53;;;;;;;2.00;1.30;;;;;;;;;;6236858;22;20363;-85
2022/10/08 11:51:19;;;;;;;7.17;2.13;;;;;;;;;;6239369;23;20417;-85
2022/10/08 11:54:06;;;;;;;7.37;1.87;;;17.10;99.90;;;;;;6237162;23;20407;-84
2022/10/08 11:56:36;;;;;;;7.23;1.60;;;15.90;99.90;;;;;;6236983;22;20387;-88
2022/10/08 11:59:08;;;;;;;4.97;1.30;;;16.40;99.90;;;;;;6238256;22;20356;-84
2022/10/08 12:01:48;;;;;;;12.00;2.20;;;16.40;99.90;;;;;;6235045;22;20358;-84
2022/10/08 12:04:36;;;;;;;5.60;1.57;;;16.80;99.90;;;;;;6234644;23;20876;-86
2022/10/08 12:07:14;;;;;;;10.30;1.63;;;16.80;99.90;;;;;;6236497;22;20366;-85
2022/10/08 12:10:01;;;;;;;5.03;1.40;;;16.60;99.90;;;;;;6240719;23;20422;-84
2022/10/08 12:12:47;;;;;;;4.70;1.20;;;16.90;99.90;;;;;;6238662;23;20426;-85
2022/10/08 12:15:21;;;;;;;2.30;1.13;;;17.00;99.90;;;;;;6237660;23;20925;-86
2022/10/08 12:17:51;;;;;;;5.30;1.77;;;17.10;99.90;;;;;;6238427;23;20447;-84
2022/10/08 12:20:25;;;;;;;5.10;1.57;;;17.20;99.90;;;;;;6231514;22;20391;-85
2022/10/08 12:23:04;;;;;;;6.13;1.73;;;17.10;99.90;;;;;;6236545;23;20454;-84
2022/10/08 12:25:36;;;;;;;4.73;1.40;;;17.50;99.90;;;;;;6241852;22;20399;-86
2022/10/08 12:28:19;;;;;;;4.50;1.27;;;17.50;99.90;;;;;;6248139;22;20375;-83
2022/10/08 12:30:52;;;;;;;2.47;1.27;;;18.00;99.90;;;;;;6262115;23;20679;-83
2022/10/08 12:33:19;;;;;;;3.10;1.20;;;18.10;99.90;;;;;;6252169;22;20429;-87
2022/10/08 12:36:11;;;;;;;6.10;1.37;;;17.50;99.90;;;;;;6244221;23;20410;-86
2022/10/08 12:38:59;;;;;;;3.40;1.07;;;16.80;99.90;;;;;;6261082;22;20370;-87
2022/10/08 12:41:39;;;;;;;9.50;2.37;;;16.80;99.90;;;;;;6246502;22;20397;-86
2022/10/08 12:44:21;;;;;;;3.70;1.20;;;17.30;99.90;;;;;;6230001;22;20391;-85
2022/10/08 12:46:47;;;;;;;4.40;1.23;;;;;;;;;;6238711;23;20435;-85
2022/10/08 12:49:33;;;;;;;12.53;1.70;;;18.10;99.90;;;;;;6234890;23;20425;-83
2022/10/08 12:52:13;;;;;;;5.60;1.30;;;17.50;99.90;;;;;;6236105;22;20720;-85
2022/10/08 12:54:55;;;;;;;3.20;0.90;;;16.90;99.90;;;;;;6238742;22;20365;-85
2022/10/08 12:57:36;;;;;;;2.60;1.10;;;17.00;99.90;;;;;;6231450;22;20348;-84
2022/10/08 13:00:08;;;;;;;1.63;0.80;;;17.00;99.90;;;;;;6236189;23;20394;-85
2022/10/08 13:02:37;;;;;;;4.50;1.10;;;;;;;;;;6237704;22;20380;-86
2022/10/08 13:05:32;;;;;;;3.57;1.57;;;17.50;99.90;;;;;;6216288;22;20387;-85
2022/10/08 13:07:58;;;;;;;5.10;1.17;;;;;;;;;;6225623;23;20383;-84
2022/10/08 13:10:27;;;;;;;6.60;1.43;;;17.30;99.90;;;;;;6230605;23;20734;-87
2022/10/08 13:13:01;;;;;;;4.90;1.33;;;17.30;99.90;;;;;;6231659;23;20510;-84
2022/10/08 13:15:29;;;;;;;3.40;1.10;;;;;;;;;;6235440;23;20399;-84
2022/10/08 13:17:55;;;;;;;4.83;1.00;;;;;;;;;;6235312;22;20352;-86
2022/10/08 13:20:22;;;;;;;6.73;2.43;;;17.60;99.90;;;;;;6230531;23;20675;-84
2022/10/08 13:22:48;;;;;;;6.03;1.23;;;;;;;;;;6232871;23;20383;-85
2022/10/08 13:25:34;;;;;;;2.30;0.90;;;17.60;99.90;;;;;;6236213;23;20466;-84
2022/10/08 13:28:15;;;;;;;3.37;1.10;;;17.70;99.90;;;;;;6234042;23;20490;-84
2022/10/08 13:30:45;;;;;;;3.50;1.00;;;17.50;99.90;;;;;;6232768;22;20370;-85
2022/10/08 13:33:12;;;;;;;1.13;0.80;;;17.30;99.90;;;;;;6234764;22;20839;-85
2022/10/08 13:35:40;;;;;;;5.60;1.33;;;17.20;99.90;;;;;;6236970;23;20398;-83
2022/10/08 13:38:07;;;;;;;2.30;0.80;;;17.00;99.90;;;;;;6226807;23;20382;-84
2022/10/08 13:40:34;;;;;;;3.70;1.17;;;;;;;;;;6229602;23;21151;-83
2022/10/08 13:43:00;;;;;;;3.77;0.87;;;;;;;;;;6229968;23;20359;-85
2022/10/08 13:45:35;;;;;;;2.83;0.83;;;17.50;99.90;;;;;;6234485;23;20440;-85
2022/10/08 13:48:01;;;;;;;2.97;1.00;;;16.80;99.90;;;;;;6229557;23;20410;-83
2022/10/08 13:50:27;;;;;;;4.03;0.97;;;;;;;;;;6231498;23;20378;-85
2022/10/08 13:52:56;;;;;;;4.47;1.13;;;16.90;99.90;;;;;;6229640;23;20427;-85
2022/10/08 13:55:30;;;;;;;6.70;2.00;;;17.20;99.90;;;;;;6236484;22;20748;-86